sensor_id;sensor_type;location;lat;lon;timestamp;P1;durP1;ratioP1;P2;durP2;ratioP2
81607;SDS011;71022;48.122;11.576;2023-08-01T00:01:13;8.15;;;2.08;;
81607;SDS011;71022;48.122;11.576;2023-08-01T00:03:41;8.73;;;2.55;;
81607;SDS011;71022;48.122;11.576;2023-08-01T00:06:08;5.78;;;1.83;;
81607;SDS011;71022;48.122;11.576;2023-08-01T00:08:35;6.97;;;2.20;;
81607;SDS011;71022;48.122;11.576;2023-08-01T00:11:02;7.32;;;2.10;;
81607;SDS011;71022;48.122;11.576;2023-08-01T00:13:30;6.20;;;1.63;;
81607;SDS011;71022;48.122;11.576;2023-08-01T00:15:57;6.15;;;1.80;;
81607;SDS011;71022;48.122;11.576;2023-08-01T00:18:34;5.65;;;1.15;;
81607;SDS011;71022;48.122;11.576;2023-08-01T00:21:01;5.50;;;1.17;;
81607;SDS011;71022;48.122;11.576;2023-08-01T00:23:29;8.65;;;3.67;;
81607;SDS011;71022;48.122;11.576;2023-08-01T00:25:56;22.00;;;12.57;;
81607;SDS011;71022;48.122;11.576;2023-08-01T00:28:24;79.32;;;48.47;;
81607;SDS011;71022;48.122;11.576;2023-08-01T00:31:00;72.68;;;42.97;;
81607;SDS011;71022;48.122;11.576;2023-08-01T00:33:28;18.15;;;8.40;;
81607;SDS011;71022;48.122;11.576;2023-08-01T00:35:56;10.55;;;4.65;;
81607;SDS011;71022;48.122;11.576;2023-08-01T00:38:23;14.88;;;6.15;;
81607;SDS011;71022;48.122;11.576;2023-08-01T00:40:50;10.15;;;3.50;;
81607;SDS011;71022;48.122;11.576;2023-08-01T00:43:18;5.55;;;1.42;;
81607;SDS011;71022;48.122;11.576;2023-08-01T00:45:45;7.75;;;1.25;;
81607;SDS011;71022;48.122;11.576;2023-08-01T00:48:13;6.65;;;1.50;;
81607;SDS011;71022;48.122;11.576;2023-08-01T00:50:41;6.00;;;1.80;;
81607;SDS011;71022;48.122;11.576;2023-08-01T00:53:08;5.55;;;1.27;;
81607;SDS011;71022;48.122;11.576;2023-08-01T00:55:36;6.40;;;1.30;;
81607;SDS011;71022;48.122;11.576;2023-08-01T00:58:04;7.03;;;1.38;;
81607;SDS011;71022;48.122;11.576;2023-08-01T01:00:31;7.63;;;2.00;;
81607;SDS011;71022;48.122;11.576;2023-08-01T01:03:01;5.43;;;1.55;;
81607;SDS011;71022;48.122;11.576;2023-08-01T01:05:31;6.47;;;1.42;;
81607;SDS011;71022;48.122;11.576;2023-08-01T01:08:03;8.48;;;1.02;;
81607;SDS011;71022;48.122;11.576;2023-08-01T01:10:31;5.40;;;1.00;;
81607;SDS011;71022;48.122;11.576;2023-08-01T01:12:59;6.43;;;1.27;;
81607;SDS011;71022;48.122;11.576;2023-08-01T01:15:26;6.20;;;1.35;;
81607;SDS011;71022;48.122;11.576;2023-08-01T01:17:54;7.28;;;1.45;;
81607;SDS011;71022;48.122;11.576;2023-08-01T01:20:24;6.55;;;1.33;;
81607;SDS011;71022;48.122;11.576;2023-08-01T01:22:52;6.00;;;1.73;;
81607;SDS011;71022;48.122;11.576;2023-08-01T01:25:22;6.40;;;1.40;;
81607;SDS011;71022;48.122;11.576;2023-08-01T01:27:50;6.00;;;1.27;;
81607;SDS011;71022;48.122;11.576;2023-08-01T01:30:19;4.85;;;1.40;;
81607;SDS011;71022;48.122;11.576;2023-08-01T01:32:48;7.00;;;2.13;;
81607;SDS011;71022;48.122;11.576;2023-08-01T01:35:16;5.10;;;1.20;;
81607;SDS011;71022;48.122;11.576;2023-08-01T01:37:43;7.45;;;1.50;;
81607;SDS011;71022;48.122;11.576;2023-08-01T01:40:10;5.82;;;1.40;;
81607;SDS011;71022;48.122;11.576;2023-08-01T01:42:38;4.78;;;1.20;;
81607;SDS011;71022;48.122;11.576;2023-08-01T01:45:05;5.43;;;1.30;;
81607;SDS011;71022;48.122;11.576;2023-08-01T01:47:33;5.38;;;1.17;;
81607;SDS011;71022;48.122;11.576;2023-08-01T01:50:00;5.70;;;1.30;;
81607;SDS011;71022;48.122;11.576;2023-08-01T01:52:27;7.25;;;1.40;;
81607;SDS011;71022;48.122;11.576;2023-08-01T01:54:54;6.53;;;1.30;;
81607;SDS011;71022;48.122;11.576;2023-08-01T01:57:22;5.78;;;1.27;;
81607;SDS011;71022;48.122;11.576;2023-08-01T01:59:49;6.00;;;1.35;;
81607;SDS011;71022;48.122;11.576;2023-08-01T02:02:16;8.23;;;1.50;;
81607;SDS011;71022;48.122;11.576;2023-08-01T02:04:45;6.30;;;1.40;;
81607;SDS011;71022;48.122;11.576;2023-08-01T02:07:14;5.72;;;1.27;;
81607;SDS011;71022;48.122;11.576;2023-08-01T02:09:41;5.88;;;1.25;;
81607;SDS011;71022;48.122;11.576;2023-08-01T02:12:09;4.60;;;1.23;;
81607;SDS011;71022;48.122;11.576;2023-08-01T02:14:41;6.20;;;1.27;;
81607;SDS011;71022;48.122;11.576;2023-08-01T02:17:08;6.13;;;1.95;;
81607;SDS011;71022;48.122;11.576;2023-08-01T02:19:35;6.18;;;1.77;;
81607;SDS011;71022;48.122;11.576;2023-08-01T02:22:03;6.18;;;1.38;;
81607;SDS011;71022;48.122;11.576;2023-08-01T02:24:31;6.85;;;1.42;;
81607;SDS011;71022;48.122;11.576;2023-08-01T02:26:58;5.50;;;1.30;;
81607;SDS011;71022;48.122;11.576;2023-08-01T02:29:25;6.07;;;1.40;;
81607;SDS011;71022;48.122;11.576;2023-08-01T02:31:52;7.32;;;1.60;;
81607;SDS011;71022;48.122;11.576;2023-08-01T02:34:20;5.78;;;1.52;;
81607;SDS011;71022;48.122;11.576;2023-08-01T02:36:47;5.97;;;1.50;;
81607;SDS011;71022;48.122;11.576;2023-08-01T02:39:14;5.97;;;1.55;;
81607;SDS011;71022;48.122;11.576;2023-08-01T02:41:42;6.07;;;1.30;;
81607;SDS011;71022;48.122;11.576;2023-08-01T02:44:09;6.47;;;1.58;;
81607;SDS011;71022;48.122;11.576;2023-08-01T02:46:36;7.82;;;1.83;;
81607;SDS011;71022;48.122;11.576;2023-08-01T02:49:04;7.55;;;1.58;;
81607;SDS011;71022;48.122;11.576;2023-08-01T02:51:31;4.88;;;1.20;;
81607;SDS011;71022;48.122;11.576;2023-08-01T02:53:58;6.68;;;1.42;;
81607;SDS011;71022;48.122;11.576;2023-08-01T02:56:26;5.72;;;1.17;;
81607;SDS011;71022;48.122;11.576;2023-08-01T02:58:54;7.80;;;1.50;;
81607;SDS011;71022;48.122;11.576;2023-08-01T03:01:22;5.82;;;1.30;;
81607;SDS011;71022;48.122;11.576;2023-08-01T03:03:50;5.13;;;1.20;;
81607;SDS011;71022;48.122;11.576;2023-08-01T03:06:17;5.43;;;1.23;;
81607;SDS011;71022;48.122;11.576;2023-08-01T03:08:45;6.72;;;1.40;;
81607;SDS011;71022;48.122;11.576;2023-08-01T03:11:51;4.32;;;0.88;;
81607;SDS011;71022;48.122;11.576;2023-08-01T03:14:19;6.15;;;1.30;;
81607;SDS011;71022;48.122;11.576;2023-08-01T03:16:46;8.30;;;1.73;;
81607;SDS011;71022;48.122;11.576;2023-08-01T03:19:13;5.65;;;1.30;;
81607;SDS011;71022;48.122;11.576;2023-08-01T03:21:40;6.03;;;1.45;;
81607;SDS011;71022;48.122;11.576;2023-08-01T03:24:08;5.80;;;1.17;;
81607;SDS011;71022;48.122;11.576;2023-08-01T03:26:36;7.22;;;1.67;;
81607;SDS011;71022;48.122;11.576;2023-08-01T03:29:03;5.30;;;1.60;;
81607;SDS011;71022;48.122;11.576;2023-08-01T03:31:32;5.53;;;1.30;;
81607;SDS011;71022;48.122;11.576;2023-08-01T03:33:59;5.65;;;1.40;;
81607;SDS011;71022;48.122;11.576;2023-08-01T03:36:27;6.15;;;1.40;;
81607;SDS011;71022;48.122;11.576;2023-08-01T03:38:55;6.15;;;1.33;;
81607;SDS011;71022;48.122;11.576;2023-08-01T03:41:22;6.28;;;1.40;;
81607;SDS011;71022;48.122;11.576;2023-08-01T03:43:50;6.30;;;1.42;;
81607;SDS011;71022;48.122;11.576;2023-08-01T03:46:17;5.47;;;1.02;;
81607;SDS011;71022;48.122;11.576;2023-08-01T03:48:44;6.18;;;1.42;;
81607;SDS011;71022;48.122;11.576;2023-08-01T03:51:12;5.60;;;1.33;;
81607;SDS011;71022;48.122;11.576;2023-08-01T03:53:42;5.15;;;1.30;;
81607;SDS011;71022;48.122;11.576;2023-08-01T03:56:09;6.28;;;1.45;;
81607;SDS011;71022;48.122;11.576;2023-08-01T03:58:36;6.05;;;1.67;;
81607;SDS011;71022;48.122;11.576;2023-08-01T04:01:03;7.20;;;1.55;;
81607;SDS011;71022;48.122;11.576;2023-08-01T04:03:31;5.95;;;1.42;;
81607;SDS011;71022;48.122;11.576;2023-08-01T04:05:58;6.13;;;1.48;;
81607;SDS011;71022;48.122;11.576;2023-08-01T04:08:26;5.88;;;1.13;;
81607;SDS011;71022;48.122;11.576;2023-08-01T04:10:56;7.22;;;1.40;;
81607;SDS011;71022;48.122;11.576;2023-08-01T04:13:23;6.00;;;1.42;;
81607;SDS011;71022;48.122;11.576;2023-08-01T04:15:50;7.20;;;1.83;;
81607;SDS011;71022;48.122;11.576;2023-08-01T04:18:17;6.47;;;1.42;;
81607;SDS011;71022;48.122;11.576;2023-08-01T04:20:45;5.75;;;1.50;;
81607;SDS011;71022;48.122;11.576;2023-08-01T04:23:13;6.70;;;1.50;;
81607;SDS011;71022;48.122;11.576;2023-08-01T04:25:40;6.60;;;1.77;;
81607;SDS011;71022;48.122;11.576;2023-08-01T04:28:08;8.55;;;1.90;;
81607;SDS011;71022;48.122;11.576;2023-08-01T04:30:35;6.05;;;1.63;;
81607;SDS011;71022;48.122;11.576;2023-08-01T04:33:05;9.95;;;4.22;;
81607;SDS011;71022;48.122;11.576;2023-08-01T04:35:32;5.85;;;1.77;;
81607;SDS011;71022;48.122;11.576;2023-08-01T04:37:59;6.63;;;2.20;;
81607;SDS011;71022;48.122;11.576;2023-08-01T04:40:26;6.70;;;1.70;;
81607;SDS011;71022;48.122;11.576;2023-08-01T04:42:54;7.47;;;2.47;;
81607;SDS011;71022;48.122;11.576;2023-08-01T04:45:22;7.30;;;2.00;;
81607;SDS011;71022;48.122;11.576;2023-08-01T04:47:49;6.88;;;1.95;;
81607;SDS011;71022;48.122;11.576;2023-08-01T04:50:16;5.95;;;1.75;;
81607;SDS011;71022;48.122;11.576;2023-08-01T04:52:43;7.10;;;1.90;;
81607;SDS011;71022;48.122;11.576;2023-08-01T04:55:10;8.25;;;2.25;;
81607;SDS011;71022;48.122;11.576;2023-08-01T04:57:38;7.70;;;2.00;;
81607;SDS011;71022;48.122;11.576;2023-08-01T05:00:05;7.80;;;2.40;;
81607;SDS011;71022;48.122;11.576;2023-08-01T05:02:33;8.70;;;2.38;;
81607;SDS011;71022;48.122;11.576;2023-08-01T05:05:00;8.25;;;2.20;;
81607;SDS011;71022;48.122;11.576;2023-08-01T05:07:27;7.90;;;2.00;;
81607;SDS011;71022;48.122;11.576;2023-08-01T05:09:55;8.45;;;3.22;;
81607;SDS011;71022;48.122;11.576;2023-08-01T05:12:22;8.13;;;2.45;;
81607;SDS011;71022;48.122;11.576;2023-08-01T05:14:49;9.60;;;2.53;;
81607;SDS011;71022;48.122;11.576;2023-08-01T05:17:16;7.32;;;1.85;;
81607;SDS011;71022;48.122;11.576;2023-08-01T05:19:44;7.80;;;2.15;;
81607;SDS011;71022;48.122;11.576;2023-08-01T05:22:11;11.18;;;3.13;;
81607;SDS011;71022;48.122;11.576;2023-08-01T05:24:38;9.82;;;3.17;;
81607;SDS011;71022;48.122;11.576;2023-08-01T05:27:05;8.38;;;3.00;;
81607;SDS011;71022;48.122;11.576;2023-08-01T05:29:33;8.90;;;2.47;;
81607;SDS011;71022;48.122;11.576;2023-08-01T05:32:00;9.75;;;1.95;;
81607;SDS011;71022;48.122;11.576;2023-08-01T05:34:27;7.43;;;2.30;;
81607;SDS011;71022;48.122;11.576;2023-08-01T05:36:54;9.02;;;2.88;;
81607;SDS011;71022;48.122;11.576;2023-08-01T05:39:22;8.48;;;2.67;;
81607;SDS011;71022;48.122;11.576;2023-08-01T05:41:49;9.90;;;2.58;;
81607;SDS011;71022;48.122;11.576;2023-08-01T05:44:17;8.82;;;2.58;;
81607;SDS011;71022;48.122;11.576;2023-08-01T05:46:44;8.93;;;2.35;;
81607;SDS011;71022;48.122;11.576;2023-08-01T05:49:12;10.15;;;2.28;;
81607;SDS011;71022;48.122;11.576;2023-08-01T05:51:39;10.45;;;2.60;;
81607;SDS011;71022;48.122;11.576;2023-08-01T05:54:06;7.28;;;2.20;;
81607;SDS011;71022;48.122;11.576;2023-08-01T05:56:33;8.40;;;2.08;;
81607;SDS011;71022;48.122;11.576;2023-08-01T05:59:01;6.90;;;2.10;;
81607;SDS011;71022;48.122;11.576;2023-08-01T06:01:28;8.23;;;1.98;;
81607;SDS011;71022;48.122;11.576;2023-08-01T06:03:55;8.10;;;2.25;;
81607;SDS011;71022;48.122;11.576;2023-08-01T06:06:23;6.80;;;1.95;;
81607;SDS011;71022;48.122;11.576;2023-08-01T06:08:52;7.05;;;2.15;;
81607;SDS011;71022;48.122;11.576;2023-08-01T06:11:20;6.13;;;1.30;;
81607;SDS011;71022;48.122;11.576;2023-08-01T06:13:47;8.63;;;1.77;;
81607;SDS011;71022;48.122;11.576;2023-08-01T06:16:14;7.40;;;1.83;;
81607;SDS011;71022;48.122;11.576;2023-08-01T06:18:42;6.60;;;1.58;;
81607;SDS011;71022;48.122;11.576;2023-08-01T06:21:09;7.03;;;2.22;;
81607;SDS011;71022;48.122;11.576;2023-08-01T06:23:36;9.55;;;3.25;;
81607;SDS011;71022;48.122;11.576;2023-08-01T06:26:03;7.22;;;2.20;;
81607;SDS011;71022;48.122;11.576;2023-08-01T06:28:31;7.07;;;1.85;;
81607;SDS011;71022;48.122;11.576;2023-08-01T06:30:58;6.07;;;1.50;;
81607;SDS011;71022;48.122;11.576;2023-08-01T06:33:25;5.97;;;1.48;;
81607;SDS011;71022;48.122;11.576;2023-08-01T06:35:52;6.38;;;1.60;;
81607;SDS011;71022;48.122;11.576;2023-08-01T06:38:19;7.63;;;1.73;;
81607;SDS011;71022;48.122;11.576;2023-08-01T06:40:47;6.63;;;1.63;;
81607;SDS011;71022;48.122;11.576;2023-08-01T06:43:14;7.93;;;1.50;;
81607;SDS011;71022;48.122;11.576;2023-08-01T06:45:41;9.20;;;1.85;;
81607;SDS011;71022;48.122;11.576;2023-08-01T06:48:09;6.60;;;1.48;;
81607;SDS011;71022;48.122;11.576;2023-08-01T06:50:36;6.85;;;1.77;;
81607;SDS011;71022;48.122;11.576;2023-08-01T06:53:03;7.68;;;2.20;;
81607;SDS011;71022;48.122;11.576;2023-08-01T06:55:30;8.27;;;1.95;;
81607;SDS011;71022;48.122;11.576;2023-08-01T06:58:01;10.55;;;4.10;;
81607;SDS011;71022;48.122;11.576;2023-08-01T07:00:28;7.93;;;2.03;;
81607;SDS011;71022;48.122;11.576;2023-08-01T07:02:55;7.03;;;1.70;;
81607;SDS011;71022;48.122;11.576;2023-08-01T07:05:23;8.35;;;1.90;;
81607;SDS011;71022;48.122;11.576;2023-08-01T07:07:51;7.88;;;2.10;;
81607;SDS011;71022;48.122;11.576;2023-08-01T07:10:18;5.82;;;1.42;;
81607;SDS011;71022;48.122;11.576;2023-08-01T07:12:46;7.30;;;1.60;;
81607;SDS011;71022;48.122;11.576;2023-08-01T07:15:14;7.50;;;1.70;;
81607;SDS011;71022;48.122;11.576;2023-08-01T07:17:44;6.45;;;1.27;;
81607;SDS011;71022;48.122;11.576;2023-08-01T07:20:11;5.70;;;1.17;;
81607;SDS011;71022;48.122;11.576;2023-08-01T07:22:38;6.10;;;1.27;;
81607;SDS011;71022;48.122;11.576;2023-08-01T07:25:06;5.68;;;1.40;;
81607;SDS011;71022;48.122;11.576;2023-08-01T07:27:33;8.13;;;1.10;;
81607;SDS011;71022;48.122;11.576;2023-08-01T07:30:02;6.43;;;1.75;;
81607;SDS011;71022;48.122;11.576;2023-08-01T07:32:29;6.28;;;1.60;;
81607;SDS011;71022;48.122;11.576;2023-08-01T07:35:00;7.03;;;1.45;;
81607;SDS011;71022;48.122;11.576;2023-08-01T07:37:28;5.50;;;1.23;;
81607;SDS011;71022;48.122;11.576;2023-08-01T07:39:56;6.78;;;1.40;;
81607;SDS011;71022;48.122;11.576;2023-08-01T07:42:24;5.75;;;1.40;;
81607;SDS011;71022;48.122;11.576;2023-08-01T07:44:51;5.43;;;1.17;;
81607;SDS011;71022;48.122;11.576;2023-08-01T07:47:18;7.30;;;1.33;;
81607;SDS011;71022;48.122;11.576;2023-08-01T07:49:46;6.93;;;1.50;;
81607;SDS011;71022;48.122;11.576;2023-08-01T07:52:13;5.28;;;1.08;;
81607;SDS011;71022;48.122;11.576;2023-08-01T07:54:40;6.32;;;1.42;;
81607;SDS011;71022;48.122;11.576;2023-08-01T07:57:08;5.25;;;1.10;;
81607;SDS011;71022;48.122;11.576;2023-08-01T07:59:35;7.13;;;1.67;;
81607;SDS011;71022;48.122;11.576;2023-08-01T08:02:04;5.05;;;1.20;;
81607;SDS011;71022;48.122;11.576;2023-08-01T08:04:32;7.05;;;1.45;;
81607;SDS011;71022;48.122;11.576;2023-08-01T08:07:00;5.50;;;1.33;;
81607;SDS011;71022;48.122;11.576;2023-08-01T08:09:27;7.53;;;1.60;;
81607;SDS011;71022;48.122;11.576;2023-08-01T08:11:54;8.43;;;1.80;;
81607;SDS011;71022;48.122;11.576;2023-08-01T08:14:24;5.90;;;1.42;;
81607;SDS011;71022;48.122;11.576;2023-08-01T08:16:51;6.05;;;1.50;;
81607;SDS011;71022;48.122;11.576;2023-08-01T08:19:19;6.03;;;1.50;;
81607;SDS011;71022;48.122;11.576;2023-08-01T08:21:46;5.63;;;1.23;;
81607;SDS011;71022;48.122;11.576;2023-08-01T08:24:13;6.43;;;1.20;;
81607;SDS011;71022;48.122;11.576;2023-08-01T08:26:40;6.78;;;1.33;;
81607;SDS011;71022;48.122;11.576;2023-08-01T08:29:08;5.45;;;1.08;;
81607;SDS011;71022;48.122;11.576;2023-08-01T08:31:36;7.50;;;1.45;;
81607;SDS011;71022;48.122;11.576;2023-08-01T08:34:04;6.32;;;1.45;;
81607;SDS011;71022;48.122;11.576;2023-08-01T08:36:31;7.05;;;1.40;;
81607;SDS011;71022;48.122;11.576;2023-08-01T08:38:58;6.28;;;1.40;;
81607;SDS011;71022;48.122;11.576;2023-08-01T08:41:27;6.72;;;1.45;;
81607;SDS011;71022;48.122;11.576;2023-08-01T08:43:58;5.95;;;1.58;;
81607;SDS011;71022;48.122;11.576;2023-08-01T08:46:27;9.57;;;1.60;;
81607;SDS011;71022;48.122;11.576;2023-08-01T08:48:56;7.40;;;1.63;;
81607;SDS011;71022;48.122;11.576;2023-08-01T08:51:26;5.57;;;1.20;;
81607;SDS011;71022;48.122;11.576;2023-08-01T08:53:55;7.45;;;1.50;;
81607;SDS011;71022;48.122;11.576;2023-08-01T08:56:26;6.63;;;1.30;;
81607;SDS011;71022;48.122;11.576;2023-08-01T08:58:55;7.50;;;1.50;;
81607;SDS011;71022;48.122;11.576;2023-08-01T09:01:23;7.20;;;1.60;;
81607;SDS011;71022;48.122;11.576;2023-08-01T09:03:50;9.13;;;2.00;;
81607;SDS011;71022;48.122;11.576;2023-08-01T09:06:24;8.45;;;2.03;;
81607;SDS011;71022;48.122;11.576;2023-08-01T09:09:01;6.97;;;1.50;;
81607;SDS011;71022;48.122;11.576;2023-08-01T09:11:31;5.45;;;1.40;;
81607;SDS011;71022;48.122;11.576;2023-08-01T09:14:07;6.32;;;1.90;;
81607;SDS011;71022;48.122;11.576;2023-08-01T09:16:35;7.32;;;1.55;;
81607;SDS011;71022;48.122;11.576;2023-08-01T09:19:03;6.35;;;1.80;;
81607;SDS011;71022;48.122;11.576;2023-08-01T09:21:33;7.65;;;1.67;;
81607;SDS011;71022;48.122;11.576;2023-08-01T09:24:11;7.03;;;1.77;;
81607;SDS011;71022;48.122;11.576;2023-08-01T09:26:40;7.75;;;1.98;;
81607;SDS011;71022;48.122;11.576;2023-08-01T09:29:08;7.22;;;1.60;;
81607;SDS011;71022;48.122;11.576;2023-08-01T09:31:36;7.57;;;2.20;;
81607;SDS011;71022;48.122;11.576;2023-08-01T09:34:20;6.07;;;1.60;;
81607;SDS011;71022;48.122;11.576;2023-08-01T09:36:49;6.60;;;1.80;;
81607;SDS011;71022;48.122;11.576;2023-08-01T09:39:18;7.22;;;1.63;;
81607;SDS011;71022;48.122;11.576;2023-08-01T09:41:56;8.40;;;2.25;;
81607;SDS011;71022;48.122;11.576;2023-08-01T09:44:28;7.13;;;1.67;;
81607;SDS011;71022;48.122;11.576;2023-08-01T09:49:23;6.97;;;2.08;;
81607;SDS011;71022;48.122;11.576;2023-08-01T09:51:51;12.85;;;5.60;;
81607;SDS011;71022;48.122;11.576;2023-08-01T09:54:18;9.68;;;3.33;;
81607;SDS011;71022;48.122;11.576;2023-08-01T09:56:48;8.15;;;2.08;;
81607;SDS011;71022;48.122;11.576;2023-08-01T09:59:21;8.32;;;2.17;;
81607;SDS011;71022;48.122;11.576;2023-08-01T10:01:50;7.82;;;2.85;;
81607;SDS011;71022;48.122;11.576;2023-08-01T10:04:20;8.38;;;2.30;;
81607;SDS011;71022;48.122;11.576;2023-08-01T10:06:54;7.13;;;1.60;;
81607;SDS011;71022;48.122;11.576;2023-08-01T10:09:25;7.03;;;1.65;;
81607;SDS011;71022;48.122;11.576;2023-08-01T10:11:56;6.97;;;1.48;;
81607;SDS011;71022;48.122;11.576;2023-08-01T10:14:25;6.85;;;1.80;;
81607;SDS011;71022;48.122;11.576;2023-08-01T10:16:52;22.20;;;10.90;;
81607;SDS011;71022;48.122;11.576;2023-08-01T10:19:22;8.80;;;2.60;;
81607;SDS011;71022;48.122;11.576;2023-08-01T10:21:50;9.77;;;3.00;;
81607;SDS011;71022;48.122;11.576;2023-08-01T10:24:21;8.32;;;2.53;;
81607;SDS011;71022;48.122;11.576;2023-08-01T10:26:51;8.82;;;2.90;;
81607;SDS011;71022;48.122;11.576;2023-08-01T10:29:18;6.85;;;1.77;;
81607;SDS011;71022;48.122;11.576;2023-08-01T10:31:54;7.20;;;1.63;;
81607;SDS011;71022;48.122;11.576;2023-08-01T10:34:22;14.60;;;7.13;;
81607;SDS011;71022;48.122;11.576;2023-08-01T10:36:53;8.80;;;1.80;;
81607;SDS011;71022;48.122;11.576;2023-08-01T10:39:24;6.55;;;1.40;;
81607;SDS011;71022;48.122;11.576;2023-08-01T10:41:59;6.13;;;1.50;;
81607;SDS011;71022;48.122;11.576;2023-08-01T10:44:29;6.57;;;1.30;;
81607;SDS011;71022;48.122;11.576;2023-08-01T10:47:03;5.90;;;1.50;;
81607;SDS011;71022;48.122;11.576;2023-08-01T10:52:02;6.85;;;1.40;;
81607;SDS011;71022;48.122;11.576;2023-08-01T10:54:32;5.82;;;1.50;;
81607;SDS011;71022;48.122;11.576;2023-08-01T10:57:01;11.50;;;4.80;;
81607;SDS011;71022;48.122;11.576;2023-08-01T10:59:29;7.15;;;1.67;;
81607;SDS011;71022;48.122;11.576;2023-08-01T11:01:57;23.05;;;9.00;;
81607;SDS011;71022;48.122;11.576;2023-08-01T11:04:26;10.70;;;3.05;;
81607;SDS011;71022;48.122;11.576;2023-08-01T11:06:54;9.00;;;2.30;;
81607;SDS011;71022;48.122;11.576;2023-08-01T11:09:25;7.22;;;1.88;;
81607;SDS011;71022;48.122;11.576;2023-08-01T11:11:54;6.25;;;1.52;;
81607;SDS011;71022;48.122;11.576;2023-08-01T11:14:26;6.10;;;1.40;;
81607;SDS011;71022;48.122;11.576;2023-08-01T11:16:57;6.30;;;1.58;;
81607;SDS011;71022;48.122;11.576;2023-08-01T11:19:27;7.07;;;1.98;;
81607;SDS011;71022;48.122;11.576;2023-08-01T11:21:56;6.70;;;1.45;;
81607;SDS011;71022;48.122;11.576;2023-08-01T11:24:25;7.18;;;1.95;;
81607;SDS011;71022;48.122;11.576;2023-08-01T11:26:55;7.90;;;1.30;;
81607;SDS011;71022;48.122;11.576;2023-08-01T11:29:23;4.53;;;0.88;;
81607;SDS011;71022;48.122;11.576;2023-08-01T11:31:57;6.72;;;1.73;;
81607;SDS011;71022;48.122;11.576;2023-08-01T11:34:25;9.68;;;3.35;;
81607;SDS011;71022;48.122;11.576;2023-08-01T11:36:53;5.53;;;0.90;;
81607;SDS011;71022;48.122;11.576;2023-08-01T11:39:20;5.53;;;0.80;;
81607;SDS011;71022;48.122;11.576;2023-08-01T11:41:51;4.50;;;0.90;;
81607;SDS011;71022;48.122;11.576;2023-08-01T11:44:23;5.15;;;0.85;;
81607;SDS011;71022;48.122;11.576;2023-08-01T11:46:50;5.80;;;0.80;;
81607;SDS011;71022;48.122;11.576;2023-08-01T11:49:18;5.13;;;0.90;;
81607;SDS011;71022;48.122;11.576;2023-08-01T11:51:46;6.40;;;1.10;;
81607;SDS011;71022;48.122;11.576;2023-08-01T11:54:13;5.97;;;1.05;;
81607;SDS011;71022;48.122;11.576;2023-08-01T11:56:50;38.20;;;14.82;;
81607;SDS011;71022;48.122;11.576;2023-08-01T11:59:27;32.55;;;13.60;;
81607;SDS011;71022;48.122;11.576;2023-08-01T12:01:55;28.85;;;10.75;;
81607;SDS011;71022;48.122;11.576;2023-08-01T12:04:26;6.13;;;1.30;;
81607;SDS011;71022;48.122;11.576;2023-08-01T12:09:22;6.53;;;1.40;;
81607;SDS011;71022;48.122;11.576;2023-08-01T12:11:59;5.80;;;1.20;;
81607;SDS011;71022;48.122;11.576;2023-08-01T12:14:28;8.95;;;2.47;;
81607;SDS011;71022;48.122;11.576;2023-08-01T12:16:56;5.30;;;0.80;;
81607;SDS011;71022;48.122;11.576;2023-08-01T12:19:23;5.18;;;0.93;;
81607;SDS011;71022;48.122;11.576;2023-08-01T12:21:50;9.88;;;3.55;;
81607;SDS011;71022;48.122;11.576;2023-08-01T12:24:18;12.27;;;4.55;;
81607;SDS011;71022;48.122;11.576;2023-08-01T12:26:45;8.90;;;2.83;;
81607;SDS011;71022;48.122;11.576;2023-08-01T12:29:13;6.40;;;1.27;;
81607;SDS011;71022;48.122;11.576;2023-08-01T12:32:01;9.38;;;2.33;;
81607;SDS011;71022;48.122;11.576;2023-08-01T12:35:05;5.30;;;1.13;;
81607;SDS011;71022;48.122;11.576;2023-08-01T12:37:38;6.43;;;1.40;;
81607;SDS011;71022;48.122;11.576;2023-08-01T12:40:09;5.15;;;0.93;;
81607;SDS011;71022;48.122;11.576;2023-08-01T12:42:43;4.32;;;0.90;;
81607;SDS011;71022;48.122;11.576;2023-08-01T12:45:13;5.93;;;1.60;;
81607;SDS011;71022;48.122;11.576;2023-08-01T12:47:44;7.85;;;2.10;;
81607;SDS011;71022;48.122;11.576;2023-08-01T12:50:12;5.93;;;1.15;;
81607;SDS011;71022;48.122;11.576;2023-08-01T12:52:42;6.78;;;1.20;;
81607;SDS011;71022;48.122;11.576;2023-08-01T12:55:09;5.63;;;1.08;;
81607;SDS011;71022;48.122;11.576;2023-08-01T12:57:37;4.22;;;0.70;;
81607;SDS011;71022;48.122;11.576;2023-08-01T13:00:04;6.22;;;1.27;;
81607;SDS011;71022;48.122;11.576;2023-08-01T13:02:32;5.45;;;1.10;;
81607;SDS011;71022;48.122;11.576;2023-08-01T13:05:00;17.67;;;7.85;;
81607;SDS011;71022;48.122;11.576;2023-08-01T13:07:27;9.10;;;3.58;;
81607;SDS011;71022;48.122;11.576;2023-08-01T13:09:54;21.35;;;9.88;;
81607;SDS011;71022;48.122;11.576;2023-08-01T13:12:22;5.20;;;1.05;;
81607;SDS011;71022;48.122;11.576;2023-08-01T13:14:49;6.43;;;1.58;;
81607;SDS011;71022;48.122;11.576;2023-08-01T13:17:19;4.88;;;0.98;;
81607;SDS011;71022;48.122;11.576;2023-08-01T13:19:50;5.97;;;1.23;;
81607;SDS011;71022;48.122;11.576;2023-08-01T13:22:56;7.40;;;2.30;;
81607;SDS011;71022;48.122;11.576;2023-08-01T13:25:26;5.32;;;1.10;;
81607;SDS011;71022;48.122;11.576;2023-08-01T13:27:53;5.43;;;1.10;;
81607;SDS011;71022;48.122;11.576;2023-08-01T13:30:21;5.72;;;1.05;;
81607;SDS011;71022;48.122;11.576;2023-08-01T13:32:48;6.38;;;1.10;;
81607;SDS011;71022;48.122;11.576;2023-08-01T13:35:15;6.55;;;1.20;;
81607;SDS011;71022;48.122;11.576;2023-08-01T13:37:43;5.60;;;1.05;;
81607;SDS011;71022;48.122;11.576;2023-08-01T13:40:10;5.32;;;1.00;;
81607;SDS011;71022;48.122;11.576;2023-08-01T13:42:40;6.68;;;1.00;;
81607;SDS011;71022;48.122;11.576;2023-08-01T13:45:08;5.25;;;0.95;;
81607;SDS011;71022;48.122;11.576;2023-08-01T13:47:36;5.30;;;0.95;;
81607;SDS011;71022;48.122;11.576;2023-08-01T13:50:03;4.45;;;0.90;;
81607;SDS011;71022;48.122;11.576;2023-08-01T13:52:31;5.53;;;1.02;;
81607;SDS011;71022;48.122;11.576;2023-08-01T13:54:59;5.22;;;0.90;;
81607;SDS011;71022;48.122;11.576;2023-08-01T13:57:26;5.00;;;1.00;;
81607;SDS011;71022;48.122;11.576;2023-08-01T13:59:54;6.07;;;1.20;;
81607;SDS011;71022;48.122;11.576;2023-08-01T14:02:40;5.32;;;1.17;;
81607;SDS011;71022;48.122;11.576;2023-08-01T14:05:07;6.80;;;0.98;;
81607;SDS011;71022;48.122;11.576;2023-08-01T14:07:35;4.88;;;1.08;;
81607;SDS011;71022;48.122;11.576;2023-08-01T14:10:10;4.35;;;0.98;;
81607;SDS011;71022;48.122;11.576;2023-08-01T14:12:38;4.43;;;0.70;;
81607;SDS011;71022;48.122;11.576;2023-08-01T14:15:05;4.20;;;0.80;;
81607;SDS011;71022;48.122;11.576;2023-08-01T14:17:33;5.40;;;0.93;;
81607;SDS011;71022;48.122;11.576;2023-08-01T14:20:01;6.03;;;1.15;;
81607;SDS011;71022;48.122;11.576;2023-08-01T14:22:31;4.88;;;1.00;;
81607;SDS011;71022;48.122;11.576;2023-08-01T14:24:58;5.03;;;0.90;;
81607;SDS011;71022;48.122;11.576;2023-08-01T14:27:25;5.10;;;0.90;;
81607;SDS011;71022;48.122;11.576;2023-08-01T14:29:52;5.25;;;1.00;;
81607;SDS011;71022;48.122;11.576;2023-08-01T14:32:20;5.75;;;0.90;;
81607;SDS011;71022;48.122;11.576;2023-08-01T14:34:47;6.43;;;1.63;;
81607;SDS011;71022;48.122;11.576;2023-08-01T14:37:28;8.50;;;2.72;;
81607;SDS011;71022;48.122;11.576;2023-08-01T14:39:56;6.07;;;1.52;;
81607;SDS011;71022;48.122;11.576;2023-08-01T14:42:24;5.40;;;1.10;;
81607;SDS011;71022;48.122;11.576;2023-08-01T14:44:54;8.50;;;2.63;;
81607;SDS011;71022;48.122;11.576;2023-08-01T14:47:21;6.03;;;1.38;;
81607;SDS011;71022;48.122;11.576;2023-08-01T14:49:49;27.08;;;12.00;;